sensor_id;sensor_type;location;lat;lon;timestamp;P1;durP1;ratioP1;P2;durP2;ratioP2
1799;SDS011;919;48.274;12.292;2023-07-16T00:00:11;4.93;;;4.53;;
1799;SDS011;919;48.274;12.292;2023-07-16T00:02:38;5.27;;;4.83;;
1799;SDS011;919;48.274;12.292;2023-07-16T00:05:05;7.67;;;5.60;;
1799;SDS011;919;48.274;12.292;2023-07-16T00:07:32;5.40;;;4.87;;
1799;SDS011;919;48.274;12.292;2023-07-16T00:10:02;4.83;;;4.23;;
1799;SDS011;919;48.274;12.292;2023-07-16T00:12:29;5.87;;;5.37;;
1799;SDS011;919;48.274;12.292;2023-07-16T00:14:58;6.33;;;4.30;;
1799;SDS011;919;48.274;12.292;2023-07-16T00:17:25;5.40;;;4.73;;
1799;SDS011;919;48.274;12.292;2023-07-16T00:19:53;4.50;;;4.10;;
1799;SDS011;919;48.274;12.292;2023-07-16T00:22:21;6.63;;;4.80;;
1799;SDS011;919;48.274;12.292;2023-07-16T00:24:48;6.03;;;5.53;;
1799;SDS011;919;48.274;12.292;2023-07-16T00:27:17;5.43;;;4.90;;
1799;SDS011;919;48.274;12.292;2023-07-16T00:29:46;5.23;;;4.83;;
1799;SDS011;919;48.274;12.292;2023-07-16T00:32:14;11.03;;;4.97;;
1799;SDS011;919;48.274;12.292;2023-07-16T00:34:42;5.90;;;4.63;;
1799;SDS011;919;48.274;12.292;2023-07-16T00:37:09;7.40;;;4.50;;
1799;SDS011;919;48.274;12.292;2023-07-16T00:39:37;4.80;;;4.40;;
1799;SDS011;919;48.274;12.292;2023-07-16T00:42:04;5.30;;;4.80;;
1799;SDS011;919;48.274;12.292;2023-07-16T00:44:33;6.10;;;4.40;;
1799;SDS011;919;48.274;12.292;2023-07-16T00:47:00;5.60;;;4.43;;
1799;SDS011;919;48.274;12.292;2023-07-16T00:49:27;5.07;;;4.60;;
1799;SDS011;919;48.274;12.292;2023-07-16T00:51:54;4.90;;;4.50;;
1799;SDS011;919;48.274;12.292;2023-07-16T00:54:22;8.10;;;4.80;;
1799;SDS011;919;48.274;12.292;2023-07-16T00:56:49;4.80;;;4.40;;
1799;SDS011;919;48.274;12.292;2023-07-16T00:59:16;4.00;;;3.70;;
1799;SDS011;919;48.274;12.292;2023-07-16T01:01:45;9.13;;;3.73;;
1799;SDS011;919;48.274;12.292;2023-07-16T01:04:11;4.03;;;3.73;;
1799;SDS011;919;48.274;12.292;2023-07-16T01:06:39;4.03;;;3.70;;
1799;SDS011;919;48.274;12.292;2023-07-16T01:09:10;3.80;;;3.50;;
1799;SDS011;919;48.274;12.292;2023-07-16T01:11:41;6.03;;;3.43;;
1799;SDS011;919;48.274;12.292;2023-07-16T01:14:09;3.77;;;3.43;;
1799;SDS011;919;48.274;12.292;2023-07-16T01:16:36;4.07;;;3.67;;
1799;SDS011;919;48.274;12.292;2023-07-16T01:19:04;5.63;;;3.67;;
1799;SDS011;919;48.274;12.292;2023-07-16T01:21:44;4.07;;;3.43;;
1799;SDS011;919;48.274;12.292;2023-07-16T01:24:23;3.60;;;3.30;;
1799;SDS011;919;48.274;12.292;2023-07-16T01:27:16;4.07;;;3.70;;
1799;SDS011;919;48.274;12.292;2023-07-16T01:29:55;3.80;;;3.40;;
1799;SDS011;919;48.274;12.292;2023-07-16T01:32:27;3.80;;;3.50;;
1799;SDS011;919;48.274;12.292;2023-07-16T01:34:56;3.77;;;3.47;;
1799;SDS011;919;48.274;12.292;2023-07-16T01:37:23;4.37;;;3.97;;
1799;SDS011;919;48.274;12.292;2023-07-16T01:39:50;5.43;;;3.90;;
1799;SDS011;919;48.274;12.292;2023-07-16T01:42:17;3.73;;;3.40;;
1799;SDS011;919;48.274;12.292;2023-07-16T01:44:49;4.50;;;3.97;;
1799;SDS011;919;48.274;12.292;2023-07-16T01:47:20;4.87;;;4.20;;
1799;SDS011;919;48.274;12.292;2023-07-16T01:49:55;3.70;;;3.40;;
1799;SDS011;919;48.274;12.292;2023-07-16T01:52:22;5.60;;;4.63;;
1799;SDS011;919;48.274;12.292;2023-07-16T01:54:49;5.10;;;4.60;;
1799;SDS011;919;48.274;12.292;2023-07-16T01:57:17;4.60;;;4.20;;
1799;SDS011;919;48.274;12.292;2023-07-16T01:59:44;5.77;;;4.90;;
1799;SDS011;919;48.274;12.292;2023-07-16T02:02:11;4.93;;;4.23;;
1799;SDS011;919;48.274;12.292;2023-07-16T02:04:39;5.00;;;4.33;;
1799;SDS011;919;48.274;12.292;2023-07-16T02:07:07;4.30;;;3.90;;
1799;SDS011;919;48.274;12.292;2023-07-16T02:09:37;4.53;;;3.80;;
1799;SDS011;919;48.274;12.292;2023-07-16T02:12:06;5.03;;;4.53;;
1799;SDS011;919;48.274;12.292;2023-07-16T02:14:36;4.70;;;4.30;;
1799;SDS011;919;48.274;12.292;2023-07-16T02:17:04;4.60;;;4.20;;
1799;SDS011;919;48.274;12.292;2023-07-16T02:19:31;6.83;;;4.70;;
1799;SDS011;919;48.274;12.292;2023-07-16T02:22:01;6.80;;;4.90;;
1799;SDS011;919;48.274;12.292;2023-07-16T02:24:28;4.90;;;4.40;;
1799;SDS011;919;48.274;12.292;2023-07-16T02:27:00;6.30;;;4.20;;
1799;SDS011;919;48.274;12.292;2023-07-16T02:29:27;4.43;;;3.97;;
1799;SDS011;919;48.274;12.292;2023-07-16T02:31:54;5.10;;;4.60;;
1799;SDS011;919;48.274;12.292;2023-07-16T02:34:22;5.40;;;4.90;;
1799;SDS011;919;48.274;12.292;2023-07-16T02:36:50;6.43;;;5.10;;
1799;SDS011;919;48.274;12.292;2023-07-16T02:39:18;4.80;;;4.40;;
1799;SDS011;919;48.274;12.292;2023-07-16T02:41:45;4.67;;;4.27;;
1799;SDS011;919;48.274;12.292;2023-07-16T02:44:12;5.60;;;4.80;;
1799;SDS011;919;48.274;12.292;2023-07-16T02:46:39;5.70;;;5.17;;
1799;SDS011;919;48.274;12.292;2023-07-16T02:49:06;4.70;;;4.30;;
1799;SDS011;919;48.274;12.292;2023-07-16T02:51:34;5.70;;;4.70;;
1799;SDS011;919;48.274;12.292;2023-07-16T02:54:01;4.37;;;3.97;;
1799;SDS011;919;48.274;12.292;2023-07-16T02:56:30;4.80;;;4.10;;
1799;SDS011;919;48.274;12.292;2023-07-16T02:58:57;5.90;;;4.57;;
1799;SDS011;919;48.274;12.292;2023-07-16T03:01:24;5.90;;;4.53;;
1799;SDS011;919;48.274;12.292;2023-07-16T03:03:51;5.67;;;5.00;;
1799;SDS011;919;48.274;12.292;2023-07-16T03:06:18;5.07;;;4.67;;
1799;SDS011;919;48.274;12.292;2023-07-16T03:08:45;10.83;;;4.87;;
1799;SDS011;919;48.274;12.292;2023-07-16T03:11:13;5.83;;;5.23;;
1799;SDS011;919;48.274;12.292;2023-07-16T03:13:41;5.13;;;4.70;;
1799;SDS011;919;48.274;12.292;2023-07-16T03:16:08;8.57;;;5.33;;
1799;SDS011;919;48.274;12.292;2023-07-16T03:18:36;5.40;;;4.90;;
1799;SDS011;919;48.274;12.292;2023-07-16T03:21:03;7.13;;;5.33;;
1799;SDS011;919;48.274;12.292;2023-07-16T03:23:30;5.90;;;5.43;;
1799;SDS011;919;48.274;12.292;2023-07-16T03:25:57;5.80;;;5.27;;
1799;SDS011;919;48.274;12.292;2023-07-16T03:28:24;6.50;;;4.93;;
1799;SDS011;919;48.274;12.292;2023-07-16T03:30:53;4.53;;;4.13;;
1799;SDS011;919;48.274;12.292;2023-07-16T03:33:20;3.93;;;3.63;;
1799;SDS011;919;48.274;12.292;2023-07-16T03:35:48;4.87;;;4.43;;
1799;SDS011;919;48.274;12.292;2023-07-16T03:38:15;5.17;;;4.67;;
1799;SDS011;919;48.274;12.292;2023-07-16T03:40:45;4.50;;;4.07;;
1799;SDS011;919;48.274;12.292;2023-07-16T03:43:12;3.87;;;3.57;;
1799;SDS011;919;48.274;12.292;2023-07-16T03:45:40;4.43;;;4.13;;
1799;SDS011;919;48.274;12.292;2023-07-16T03:48:09;4.30;;;3.90;;
1799;SDS011;919;48.274;12.292;2023-07-16T03:50:36;4.70;;;4.30;;
1799;SDS011;919;48.274;12.292;2023-07-16T03:53:03;4.80;;;4.40;;
1799;SDS011;919;48.274;12.292;2023-07-16T03:55:31;4.80;;;4.40;;
1799;SDS011;919;48.274;12.292;2023-07-16T03:57:58;6.10;;;4.80;;
1799;SDS011;919;48.274;12.292;2023-07-16T04:00:25;5.40;;;4.90;;
1799;SDS011;919;48.274;12.292;2023-07-16T04:02:53;4.33;;;3.93;;
1799;SDS011;919;48.274;12.292;2023-07-16T04:05:21;5.53;;;5.03;;
1799;SDS011;919;48.274;12.292;2023-07-16T04:07:48;5.50;;;5.00;;
1799;SDS011;919;48.274;12.292;2023-07-16T04:10:15;5.90;;;4.13;;
1799;SDS011;919;48.274;12.292;2023-07-16T04:12:42;4.97;;;4.57;;
1799;SDS011;919;48.274;12.292;2023-07-16T04:15:09;5.90;;;5.37;;
1799;SDS011;919;48.274;12.292;2023-07-16T04:17:38;5.13;;;4.63;;
1799;SDS011;919;48.274;12.292;2023-07-16T04:20:06;5.50;;;5.00;;
1799;SDS011;919;48.274;12.292;2023-07-16T04:22:35;4.70;;;4.30;;
1799;SDS011;919;48.274;12.292;2023-07-16T04:25:03;5.37;;;4.87;;
1799;SDS011;919;48.274;12.292;2023-07-16T04:27:31;5.17;;;4.67;;
1799;SDS011;919;48.274;12.292;2023-07-16T04:29:58;4.90;;;4.50;;
1799;SDS011;919;48.274;12.292;2023-07-16T04:32:25;4.67;;;4.27;;
1799;SDS011;919;48.274;12.292;2023-07-16T04:34:52;4.50;;;4.20;;
1799;SDS011;919;48.274;12.292;2023-07-16T04:37:20;4.13;;;3.83;;
1799;SDS011;919;48.274;12.292;2023-07-16T04:39:49;5.00;;;4.40;;
1799;SDS011;919;48.274;12.292;2023-07-16T04:42:17;4.57;;;3.70;;
1799;SDS011;919;48.274;12.292;2023-07-16T04:44:45;5.53;;;4.00;;
1799;SDS011;919;48.274;12.292;2023-07-16T04:47:12;5.50;;;4.07;;
1799;SDS011;919;48.274;12.292;2023-07-16T04:49:40;4.30;;;3.63;;
1799;SDS011;919;48.274;12.292;2023-07-16T04:52:08;5.43;;;3.10;;
1799;SDS011;919;48.274;12.292;2023-07-16T04:54:35;3.20;;;2.90;;
1799;SDS011;919;48.274;12.292;2023-07-16T04:57:05;2.90;;;2.70;;
1799;SDS011;919;48.274;12.292;2023-07-16T04:59:33;3.47;;;2.77;;
1799;SDS011;919;48.274;12.292;2023-07-16T05:02:01;4.13;;;2.50;;
1799;SDS011;919;48.274;12.292;2023-07-16T05:04:28;3.70;;;2.67;;
1799;SDS011;919;48.274;12.292;2023-07-16T05:06:55;3.20;;;2.60;;
1799;SDS011;919;48.274;12.292;2023-07-16T05:09:23;3.00;;;2.80;;
1799;SDS011;919;48.274;12.292;2023-07-16T05:11:50;3.03;;;2.60;;
1799;SDS011;919;48.274;12.292;2023-07-16T05:14:18;2.87;;;2.67;;
1799;SDS011;919;48.274;12.292;2023-07-16T05:16:46;3.20;;;2.90;;
1799;SDS011;919;48.274;12.292;2023-07-16T05:19:13;2.40;;;2.30;;
1799;SDS011;919;48.274;12.292;2023-07-16T05:21:40;3.13;;;2.40;;
1799;SDS011;919;48.274;12.292;2023-07-16T05:24:07;6.13;;;2.70;;
1799;SDS011;919;48.274;12.292;2023-07-16T05:26:35;2.60;;;2.40;;
1799;SDS011;919;48.274;12.292;2023-07-16T05:29:02;4.07;;;2.83;;
1799;SDS011;919;48.274;12.292;2023-07-16T05:31:31;2.83;;;2.10;;
1799;SDS011;919;48.274;12.292;2023-07-16T05:33:59;2.43;;;2.33;;
1799;SDS011;919;48.274;12.292;2023-07-16T05:36:26;2.00;;;1.90;;
1799;SDS011;919;48.274;12.292;2023-07-16T05:38:53;2.20;;;2.00;;
1799;SDS011;919;48.274;12.292;2023-07-16T05:41:20;2.27;;;2.17;;
1799;SDS011;919;48.274;12.292;2023-07-16T05:43:49;2.43;;;1.90;;
1799;SDS011;919;48.274;12.292;2023-07-16T05:46:16;2.03;;;1.93;;
1799;SDS011;919;48.274;12.292;2023-07-16T05:48:45;2.17;;;1.97;;
1799;SDS011;919;48.274;12.292;2023-07-16T05:51:12;2.33;;;2.20;;
1799;SDS011;919;48.274;12.292;2023-07-16T05:53:43;1.93;;;1.70;;
1799;SDS011;919;48.274;12.292;2023-07-16T05:56:10;1.90;;;1.80;;
1799;SDS011;919;48.274;12.292;2023-07-16T05:58:37;2.30;;;1.87;;
1799;SDS011;919;48.274;12.292;2023-07-16T06:01:07;2.20;;;2.00;;
1799;SDS011;919;48.274;12.292;2023-07-16T06:03:35;1.90;;;1.73;;
1799;SDS011;919;48.274;12.292;2023-07-16T06:06:04;2.70;;;1.80;;
1799;SDS011;919;48.274;12.292;2023-07-16T06:08:39;2.40;;;1.80;;
1799;SDS011;919;48.274;12.292;2023-07-16T06:11:06;4.50;;;2.07;;
1799;SDS011;919;48.274;12.292;2023-07-16T06:13:33;2.10;;;2.00;;
1799;SDS011;919;48.274;12.292;2023-07-16T06:15:59;1.73;;;1.63;;
1799;SDS011;919;48.274;12.292;2023-07-16T06:18:26;2.37;;;2.00;;
1799;SDS011;919;48.274;12.292;2023-07-16T06:20:53;1.73;;;1.63;;
1799;SDS011;919;48.274;12.292;2023-07-16T06:23:21;2.17;;;1.97;;
1799;SDS011;919;48.274;12.292;2023-07-16T06:25:48;2.30;;;2.20;;
1799;SDS011;919;48.274;12.292;2023-07-16T06:28:19;3.43;;;1.90;;
1799;SDS011;919;48.274;12.292;2023-07-16T06:30:46;2.70;;;2.50;;
1799;SDS011;919;48.274;12.292;2023-07-16T06:33:13;3.53;;;2.60;;
1799;SDS011;919;48.274;12.292;2023-07-16T06:35:40;2.07;;;1.97;;
1799;SDS011;919;48.274;12.292;2023-07-16T06:38:10;3.20;;;1.77;;
1799;SDS011;919;48.274;12.292;2023-07-16T06:40:38;2.40;;;2.30;;
1799;SDS011;919;48.274;12.292;2023-07-16T06:43:04;3.10;;;2.80;;
1799;SDS011;919;48.274;12.292;2023-07-16T06:45:31;3.27;;;2.10;;
1799;SDS011;919;48.274;12.292;2023-07-16T06:47:58;2.80;;;2.60;;
1799;SDS011;919;48.274;12.292;2023-07-16T06:50:25;3.13;;;2.93;;
1799;SDS011;919;48.274;12.292;2023-07-16T06:52:52;2.87;;;2.10;;
1799;SDS011;919;48.274;12.292;2023-07-16T06:55:19;3.00;;;2.80;;
1799;SDS011;919;48.274;12.292;2023-07-16T06:57:47;2.50;;;2.30;;
1799;SDS011;919;48.274;12.292;2023-07-16T07:00:14;3.03;;;2.73;;
1799;SDS011;919;48.274;12.292;2023-07-16T07:02:41;2.50;;;1.90;;
1799;SDS011;919;48.274;12.292;2023-07-16T07:05:08;2.60;;;1.87;;
1799;SDS011;919;48.274;12.292;2023-07-16T07:07:35;3.17;;;1.77;;
1799;SDS011;919;48.274;12.292;2023-07-16T07:10:02;1.77;;;1.60;;
1799;SDS011;919;48.274;12.292;2023-07-16T07:12:29;1.60;;;1.50;;
1799;SDS011;919;48.274;12.292;2023-07-16T07:15:01;1.87;;;1.77;;
1799;SDS011;919;48.274;12.292;2023-07-16T07:17:28;1.67;;;1.57;;
1799;SDS011;919;48.274;12.292;2023-07-16T07:19:54;1.80;;;1.70;;
1799;SDS011;919;48.274;12.292;2023-07-16T07:22:21;2.13;;;1.70;;
1799;SDS011;919;48.274;12.292;2023-07-16T07:24:48;1.77;;;1.67;;
1799;SDS011;919;48.274;12.292;2023-07-16T07:27:15;1.70;;;1.60;;
1799;SDS011;919;48.274;12.292;2023-07-16T07:29:42;1.57;;;1.47;;
1799;SDS011;919;48.274;12.292;2023-07-16T07:32:10;1.70;;;1.60;;
1799;SDS011;919;48.274;12.292;2023-07-16T07:34:38;1.47;;;1.37;;
1799;SDS011;919;48.274;12.292;2023-07-16T07:37:05;1.60;;;1.50;;
1799;SDS011;919;48.274;12.292;2023-07-16T07:39:32;1.97;;;1.87;;
1799;SDS011;919;48.274;12.292;2023-07-16T07:41:58;1.60;;;1.50;;
1799;SDS011;919;48.274;12.292;2023-07-16T07:44:25;2.10;;;1.83;;
1799;SDS011;919;48.274;12.292;2023-07-16T07:46:52;2.00;;;1.90;;
1799;SDS011;919;48.274;12.292;2023-07-16T07:49:20;1.87;;;1.77;;
1799;SDS011;919;48.274;12.292;2023-07-16T07:51:48;2.30;;;1.93;;
1799;SDS011;919;48.274;12.292;2023-07-16T07:54:15;2.30;;;2.10;;
1799;SDS011;919;48.274;12.292;2023-07-16T07:56:42;2.23;;;2.10;;
1799;SDS011;919;48.274;12.292;2023-07-16T07:59:08;2.10;;;2.00;;
1799;SDS011;919;48.274;12.292;2023-07-16T08:01:35;3.53;;;3.23;;
1799;SDS011;919;48.274;12.292;2023-07-16T08:04:02;1.83;;;1.73;;
1799;SDS011;919;48.274;12.292;2023-07-16T08:06:30;1.83;;;1.73;;
1799;SDS011;919;48.274;12.292;2023-07-16T08:08:57;2.20;;;2.00;;
1799;SDS011;919;48.274;12.292;2023-07-16T08:11:24;1.60;;;1.50;;
1799;SDS011;919;48.274;12.292;2023-07-16T08:13:51;2.23;;;2.13;;
1799;SDS011;919;48.274;12.292;2023-07-16T08:16:18;1.80;;;1.70;;
1799;SDS011;919;48.274;12.292;2023-07-16T08:18:44;2.20;;;2.10;;
1799;SDS011;919;48.274;12.292;2023-07-16T08:21:11;1.63;;;1.53;;
1799;SDS011;919;48.274;12.292;2023-07-16T08:23:46;1.90;;;1.80;;
1799;SDS011;919;48.274;12.292;2023-07-16T08:26:13;3.70;;;2.40;;
1799;SDS011;919;48.274;12.292;2023-07-16T08:28:39;2.00;;;1.90;;
1799;SDS011;919;48.274;12.292;2023-07-16T08:31:06;2.63;;;2.23;;
1799;SDS011;919;48.274;12.292;2023-07-16T08:33:33;3.73;;;2.00;;
1799;SDS011;919;48.274;12.292;2023-07-16T08:35:59;2.90;;;2.40;;
1799;SDS011;919;48.274;12.292;2023-07-16T08:38:26;2.33;;;2.23;;
1799;SDS011;919;48.274;12.292;2023-07-16T08:40:54;2.37;;;2.17;;
1799;SDS011;919;48.274;12.292;2023-07-16T08:43:21;2.23;;;2.03;;
1799;SDS011;919;48.274;12.292;2023-07-16T08:45:48;2.70;;;2.20;;
1799;SDS011;919;48.274;12.292;2023-07-16T08:48:15;2.43;;;2.23;;
1799;SDS011;919;48.274;12.292;2023-07-16T08:50:43;2.30;;;2.00;;
1799;SDS011;919;48.274;12.292;2023-07-16T08:53:13;1.80;;;1.70;;
1799;SDS011;919;48.274;12.292;2023-07-16T08:55:42;2.30;;;1.60;;
1799;SDS011;919;48.274;12.292;2023-07-16T08:58:12;1.80;;;1.70;;
1799;SDS011;919;48.274;12.292;2023-07-16T09:00:40;1.80;;;1.70;;
1799;SDS011;919;48.274;12.292;2023-07-16T09:03:09;2.00;;;1.87;;
1799;SDS011;919;48.274;12.292;2023-07-16T09:05:37;2.00;;;1.90;;
1799;SDS011;919;48.274;12.292;2023-07-16T09:08:05;2.07;;;1.97;;
1799;SDS011;919;48.274;12.292;2023-07-16T09:10:32;1.77;;;1.67;;
1799;SDS011;919;48.274;12.292;2023-07-16T09:12:59;1.90;;;1.80;;
1799;SDS011;919;48.274;12.292;2023-07-16T09:15:28;1.87;;;1.70;;
1799;SDS011;919;48.274;12.292;2023-07-16T09:17:56;2.20;;;2.00;;
1799;SDS011;919;48.274;12.292;2023-07-16T09:20:22;2.30;;;2.10;;
1799;SDS011;919;48.274;12.292;2023-07-16T09:22:49;4.90;;;2.10;;
1799;SDS011;919;48.274;12.292;2023-07-16T09:25:19;2.20;;;2.00;;
1799;SDS011;919;48.274;12.292;2023-07-16T09:27:51;2.30;;;2.20;;
1799;SDS011;919;48.274;12.292;2023-07-16T09:30:18;1.90;;;1.80;;
1799;SDS011;919;48.274;12.292;2023-07-16T09:32:46;2.03;;;1.93;;
1799;SDS011;919;48.274;12.292;2023-07-16T09:35:13;2.27;;;2.17;;
1799;SDS011;919;48.274;12.292;2023-07-16T09:37:41;1.70;;;1.60;;
1799;SDS011;919;48.274;12.292;2023-07-16T09:40:10;2.27;;;2.17;;
1799;SDS011;919;48.274;12.292;2023-07-16T09:42:38;5.00;;;4.30;;
1799;SDS011;919;48.274;12.292;2023-07-16T09:45:06;2.90;;;2.70;;
1799;SDS011;919;48.274;12.292;2023-07-16T09:47:34;2.30;;;2.20;;
1799;SDS011;919;48.274;12.292;2023-07-16T09:50:02;2.37;;;2.17;;
1799;SDS011;919;48.274;12.292;2023-07-16T09:52:30;2.13;;;2.03;;
1799;SDS011;919;48.274;12.292;2023-07-16T09:54:57;1.90;;;1.80;;
1799;SDS011;919;48.274;12.292;2023-07-16T09:57:27;2.40;;;2.20;;
1799;SDS011;919;48.274;12.292;2023-07-16T09:59:58;2.27;;;2.17;;
1799;SDS011;919;48.274;12.292;2023-07-16T10:02:30;2.33;;;2.13;;
1799;SDS011;919;48.274;12.292;2023-07-16T10:04:58;2.00;;;1.90;;
1799;SDS011;919;48.274;12.292;2023-07-16T10:07:26;2.00;;;1.90;;
1799;SDS011;919;48.274;12.292;2023-07-16T10:09:53;2.10;;;2.00;;
1799;SDS011;919;48.274;12.292;2023-07-16T10:12:22;2.40;;;2.20;;
1799;SDS011;919;48.274;12.292;2023-07-16T10:14:50;2.00;;;1.90;;
1799;SDS011;919;48.274;12.292;2023-07-16T10:17:18;3.00;;;1.97;;
1799;SDS011;919;48.274;12.292;2023-07-16T10:19:46;2.50;;;2.40;;
1799;SDS011;919;48.274;12.292;2023-07-16T10:22:17;2.20;;;2.00;;
1799;SDS011;919;48.274;12.292;2023-07-16T10:24:45;2.27;;;2.07;;
1799;SDS011;919;48.274;12.292;2023-07-16T10:27:26;1.83;;;1.73;;
1799;SDS011;919;48.274;12.292;2023-07-16T10:29:53;2.00;;;1.90;;
1799;SDS011;919;48.274;12.292;2023-07-16T10:32:21;2.50;;;2.30;;
1799;SDS011;919;48.274;12.292;2023-07-16T10:34:48;2.77;;;2.57;;
1799;SDS011;919;48.274;12.292;2023-07-16T10:37:15;2.90;;;2.07;;
1799;SDS011;919;48.274;12.292;2023-07-16T10:39:47;2.40;;;2.20;;
1799;SDS011;919;48.274;12.292;2023-07-16T10:42:15;2.33;;;2.13;;
1799;SDS011;919;48.274;12.292;2023-07-16T10:44:42;2.40;;;2.30;;
1799;SDS011;919;48.274;12.292;2023-07-16T10:47:09;2.10;;;2.00;;
1799;SDS011;919;48.274;12.292;2023-07-16T10:49:44;1.80;;;1.70;;
1799;SDS011;919;48.274;12.292;2023-07-16T10:52:10;2.20;;;2.00;;
1799;SDS011;919;48.274;12.292;2023-07-16T10:54:37;2.43;;;1.97;;
1799;SDS011;919;48.274;12.292;2023-07-16T10:57:07;2.00;;;1.90;;
1799;SDS011;919;48.274;12.292;2023-07-16T10:59:33;2.57;;;2.37;;
1799;SDS011;919;48.274;12.292;2023-07-16T11:02:03;2.53;;;2.23;;
1799;SDS011;919;48.274;12.292;2023-07-16T11:04:33;2.07;;;1.87;;
1799;SDS011;919;48.274;12.292;2023-07-16T11:07:03;2.13;;;2.03;;
1799;SDS011;919;48.274;12.292;2023-07-16T11:09:31;2.00;;;1.90;;
1799;SDS011;919;48.274;12.292;2023-07-16T11:12:04;2.07;;;1.97;;
1799;SDS011;919;48.274;12.292;2023-07-16T11:14:33;2.10;;;1.90;;
1799;SDS011;919;48.274;12.292;2023-07-16T11:17:03;2.50;;;2.30;;
1799;SDS011;919;48.274;12.292;2023-07-16T11:19:33;2.07;;;1.97;;
1799;SDS011;919;48.274;12.292;2023-07-16T11:22:00;1.93;;;1.83;;
1799;SDS011;919;48.274;12.292;2023-07-16T11:24:36;1.93;;;1.83;;
1799;SDS011;919;48.274;12.292;2023-07-16T11:27:05;2.03;;;1.93;;
1799;SDS011;919;48.274;12.292;2023-07-16T11:29:39;2.17;;;2.07;;
1799;SDS011;919;48.274;12.292;2023-07-16T11:32:11;1.87;;;1.77;;
1799;SDS011;919;48.274;12.292;2023-07-16T11:34:51;2.03;;;1.90;;
1799;SDS011;919;48.274;12.292;2023-07-16T11:37:18;2.07;;;1.97;;
1799;SDS011;919;48.274;12.292;2023-07-16T11:39:47;2.33;;;2.23;;
1799;SDS011;919;48.274;12.292;2023-07-16T11:42:17;2.40;;;2.30;;
1799;SDS011;919;48.274;12.292;2023-07-16T11:44:49;2.20;;;2.10;;
1799;SDS011;919;48.274;12.292;2023-07-16T11:47:18;1.97;;;1.87;;
1799;SDS011;919;48.274;12.292;2023-07-16T11:49:46;1.83;;;1.70;;
1799;SDS011;919;48.274;12.292;2023-07-16T11:52:14;1.90;;;1.80;;
1799;SDS011;919;48.274;12.292;2023-07-16T11:54:47;1.80;;;1.70;;
1799;SDS011;919;48.274;12.292;2023-07-16T11:57:17;1.70;;;1.60;;
1799;SDS011;919;48.274;12.292;2023-07-16T11:59:44;1.90;;;1.80;;
1799;SDS011;919;48.274;12.292;2023-07-16T12:02:12;1.97;;;1.87;;
1799;SDS011;919;48.274;12.292;2023-07-16T12:04:40;2.33;;;2.23;;
1799;SDS011;919;48.274;12.292;2023-07-16T12:07:09;1.93;;;1.83;;
1799;SDS011;919;48.274;12.292;2023-07-16T12:09:37;1.83;;;1.70;;
1799;SDS011;919;48.274;12.292;2023-07-16T12:12:04;1.73;;;1.63;;
1799;SDS011;919;48.274;12.292;2023-07-16T12:14:33;2.20;;;2.10;;
1799;SDS011;919;48.274;12.292;2023-07-16T12:17:01;2.00;;;1.90;;
1799;SDS011;919;48.274;12.292;2023-07-16T12:19:28;2.20;;;2.10;;
1799;SDS011;919;48.274;12.292;2023-07-16T12:21:57;2.07;;;1.97;;
1799;SDS011;919;48.274;12.292;2023-07-16T12:24:25;2.00;;;1.90;;
1799;SDS011;919;48.274;12.292;2023-07-16T12:26:52;2.40;;;2.30;;
1799;SDS011;919;48.274;12.292;2023-07-16T12:29:19;2.20;;;2.10;;
1799;SDS011;919;48.274;12.292;2023-07-16T12:31:47;1.70;;;1.57;;
1799;SDS011;919;48.274;12.292;2023-07-16T12:34:14;3.00;;;1.80;;
1799;SDS011;919;48.274;12.292;2023-07-16T12:36:42;2.00;;;1.90;;
1799;SDS011;919;48.274;12.292;2023-07-16T12:39:09;1.77;;;1.67;;
1799;SDS011;919;48.274;12.292;2023-07-16T12:41:37;2.33;;;2.10;;
1799;SDS011;919;48.274;12.292;2023-07-16T12:44:04;1.90;;;1.80;;
1799;SDS011;919;48.274;12.292;2023-07-16T12:46:31;2.10;;;2.00;;
1799;SDS011;919;48.274;12.292;2023-07-16T12:48:59;2.20;;;2.10;;
1799;SDS011;919;48.274;12.292;2023-07-16T12:51:27;2.00;;;1.90;;
1799;SDS011;919;48.274;12.292;2023-07-16T12:53:56;1.90;;;1.80;;
1799;SDS011;919;48.274;12.292;2023-07-16T12:56:25;2.00;;;1.90;;
1799;SDS011;919;48.274;12.292;2023-07-16T12:58:54;2.63;;;2.30;;
1799;SDS011;919;48.274;12.292;2023-07-16T13:01:21;2.70;;;1.93;;
1799;SDS011;919;48.274;12.292;2023-07-16T13:03:48;2.20;;;2.07;;
1799;SDS011;919;48.274;12.292;2023-07-16T13:06:17;2.10;;;2.00;;
1799;SDS011;919;48.274;12.292;2023-07-16T13:08:44;2.20;;;2.10;;
1799;SDS011;919;48.274;12.292;2023-07-16T13:11:12;2.20;;;2.10;;
1799;SDS011;919;48.274;12.292;2023-07-16T13:13:39;2.10;;;2.00;;
1799;SDS011;919;48.274;12.292;2023-07-16T13:16:09;2.43;;;2.30;;
1799;SDS011;919;48.274;12.292;2023-07-16T13:18:36;2.73;;;2.53;;
1799;SDS011;919;48.274;12.292;2023-07-16T13:21:04;2.40;;;2.30;;
1799;SDS011;919;48.274;12.292;2023-07-16T13:23:33;2.37;;;2.27;;
1799;SDS011;919;48.274;12.292;2023-07-16T13:26:02;2.30;;;2.20;;
1799;SDS011;919;48.274;12.292;2023-07-16T13:28:29;2.40;;;2.20;;
1799;SDS011;919;48.274;12.292;2023-07-16T13:30:56;3.10;;;2.57;;
1799;SDS011;919;48.274;12.292;2023-07-16T13:33:24;2.00;;;1.90;;
1799;SDS011;919;48.274;12.292;2023-07-16T13:35:52;2.27;;;2.17;;
1799;SDS011;919;48.274;12.292;2023-07-16T13:38:19;2.47;;;2.27;;
1799;SDS011;919;48.274;12.292;2023-07-16T13:40:48;2.00;;;1.90;;
1799;SDS011;919;48.274;12.292;2023-07-16T13:43:15;2.00;;;1.90;;
1799;SDS011;919;48.274;12.292;2023-07-16T13:45:45;1.97;;;1.87;;
1799;SDS011;919;48.274;12.292;2023-07-16T13:48:11;2.00;;;1.90;;
1799;SDS011;919;48.274;12.292;2023-07-16T13:50:38;2.50;;;2.30;;
1799;SDS011;919;48.274;12.292;2023-07-16T13:53:05;2.57;;;2.43;;
1799;SDS011;919;48.274;12.292;2023-07-16T13:55:32;3.00;;;2.80;;
1799;SDS011;919;48.274;12.292;2023-07-16T13:58:02;2.30;;;2.20;;
1799;SDS011;919;48.274;12.292;2023-07-16T14:00:29;2.30;;;2.20;;
1799;SDS011;919;48.274;12.292;2023-07-16T14:02:57;2.00;;;1.90;;
1799;SDS011;919;48.274;12.292;2023-07-16T14:05:24;2.77;;;2.57;;
1799;SDS011;919;48.274;12.292;2023-07-16T14:07:52;2.50;;;2.30;;
1799;SDS011;919;48.274;12.292;2023-07-16T14:10:21;2.93;;;2.73;;
1799;SDS011;919;48.274;12.292;2023-07-16T14:12:50;3.43;;;2.67;;
1799;SDS011;919;48.274;12.292;2023-07-16T14:15:18;2.10;;;2.00;;
1799;SDS011;919;48.274;12.292;2023-07-16T14:17:46;3.00;;;2.60;;
1799;SDS011;919;48.274;12.292;2023-07-16T14:20:15;2.30;;;2.20;;
1799;SDS011;919;48.274;12.292;2023-07-16T14:22:43;2.37;;;2.27;;
1799;SDS011;919;48.274;12.292;2023-07-16T14:25:10;2.50;;;2.33;;
1799;SDS011;919;48.274;12.292;2023-07-16T14:27:38;2.13;;;2.00;;
1799;SDS011;919;48.274;12.292;2023-07-16T14:30:07;2.33;;;2.23;;
1799;SDS011;919;48.274;12.292;2023-07-16T14:32:37;2.87;;;2.67;;
1799;SDS011;919;48.274;12.292;2023-07-16T14:35:05;2.87;;;2.67;;
1799;SDS011;919;48.274;12.292;2023-07-16T14:37:33;2.60;;;2.50;;
1799;SDS011;919;48.274;12.292;2023-07-16T14:40:02;3.03;;;2.57;;
1799;SDS011;919;48.274;12.292;2023-07-16T14:42:30;3.37;;;3.13;;
1799;SDS011;919;48.274;12.292;2023-07-16T14:44:57;2.80;;;2.53;;
1799;SDS011;919;48.274;12.292;2023-07-16T14:47:24;2.80;;;2.70;;
1799;SDS011;919;48.274;12.292;2023-07-16T14:49:52;4.50;;;4.10;;
1799;SDS011;919;48.274;12.292;2023-07-16T14:52:19;4.00;;;3.67;;
1799;SDS011;919;48.274;12.292;2023-07-16T14:54:47;3.20;;;3.00;;
1799;SDS011;919;48.274;12.292;2023-07-16T14:57:14;2.83;;;2.63;;
1799;SDS011;919;48.274;12.292;2023-07-16T14:59:42;3.33;;;3.03;;
1799;SDS011;919;48.274;12.292;2023-07-16T15:02:09;2.90;;;2.60;;
1799;SDS011;919;48.274;12.292;2023-07-16T15:04:36;2.57;;;2.40;;
1799;SDS011;919;48.274;12.292;2023-07-16T15:07:05;2.40;;;2.30;;
1799;SDS011;919;48.274;12.292;2023-07-16T15:09:33;2.90;;;2.70;;
1799;SDS011;919;48.274;12.292;2023-07-16T15:12:03;3.67;;;2.80;;
1799;SDS011;919;48.274;12.292;2023-07-16T15:14:30;5.03;;;4.63;;
1799;SDS011;919;48.274;12.292;2023-07-16T15:16:58;6.40;;;5.90;;
1799;SDS011;919;48.274;12.292;2023-07-16T15:19:24;4.03;;;3.70;;